createdAt,value
2018-06-21T00:59:41.111Z,16.80
2018-06-21T01:02:10.030Z,16.70
2018-06-21T01:04:38.418Z,16.70
2018-06-21T01:07:07.675Z,16.60
2018-06-21T01:09:36.425Z,16.60
2018-06-21T01:12:05.236Z,16.60
2018-06-21T01:14:33.955Z,16.60
2018-06-21T01:17:03.427Z,16.50
2018-06-21T01:19:31.997Z,16.50
2018-06-21T01:22:00.611Z,16.50
2018-06-21T01:24:29.534Z,16.40
2018-06-21T01:26:57.952Z,16.40
2018-06-21T01:31:55.274Z,16.30
2018-06-21T01:34:23.887Z,16.30
2018-06-21T01:36:52.339Z,16.20
2018-06-21T01:39:21.079Z,16.20
2018-06-21T01:41:50.186Z,16.10
2018-06-21T01:44:18.910Z,16.10
2018-06-21T01:46:47.519Z,16.10
2018-06-21T01:49:15.910Z,16.00
2018-06-21T01:51:45.109Z,16.00
2018-06-21T01:54:13.609Z,15.90
2018-06-21T01:56:42.155Z,15.90
2018-06-21T01:59:10.533Z,15.80
2018-06-21T02:01:39.196Z,15.80
2018-06-21T02:04:08.120Z,15.80
2018-06-21T02:06:36.525Z,15.70
2018-06-21T02:09:07.770Z,15.70
2018-06-21T02:11:36.279Z,15.70
2018-06-21T02:14:11.582Z,15.60
2018-06-21T02:16:40.245Z,15.60
2018-06-21T02:19:09.172Z,15.60
2018-06-21T02:21:38.363Z,15.50
2018-06-21T02:24:07.225Z,15.50
2018-06-21T02:26:35.653Z,15.50
2018-06-21T02:29:04.139Z,15.50
2018-06-21T02:31:33.401Z,15.40
2018-06-21T02:34:01.815Z,15.40
2018-06-21T02:36:30.456Z,15.30
2018-06-21T02:38:59.494Z,15.30
2018-06-21T02:41:27.993Z,15.30
2018-06-21T02:43:56.867Z,15.30
2018-06-21T02:46:25.348Z,15.30
2018-06-21T02:48:54.125Z,15.30
2018-06-21T02:51:22.613Z,15.20
2018-06-21T02:53:54.345Z,15.20
2018-06-21T02:58:51.328Z,15.20
2018-06-21T03:01:19.814Z,15.20
2018-06-21T03:03:48.256Z,15.20
2018-06-21T03:06:17.993Z,15.10
2018-06-21T03:08:46.483Z,15.20
2018-06-21T03:11:14.914Z,15.20
2018-06-21T03:13:45.004Z,15.20
2018-06-21T03:16:13.602Z,15.20
2018-06-21T03:18:42.245Z,15.20
2018-06-21T03:21:11.192Z,15.10
2018-06-21T03:23:39.591Z,15.10
2018-06-21T03:26:08.604Z,15.10
2018-06-21T03:28:37.347Z,15.10
2018-06-21T03:31:06.297Z,15.10
2018-06-21T03:33:35.048Z,15.10
2018-06-21T03:36:04.400Z,15.10
2018-06-21T03:38:33.598Z,15.20
2018-06-21T03:41:02.147Z,15.20
2018-06-21T03:43:31.194Z,15.20
2018-06-21T03:45:59.965Z,15.10
2018-06-21T03:48:28.627Z,15.10
2018-06-21T03:50:57.266Z,15.10
2018-06-21T03:53:25.841Z,15.10
2018-06-21T03:55:54.231Z,15.10
2018-06-21T03:58:23.356Z,15.20
2018-06-21T04:00:52.116Z,15.20
2018-06-21T04:03:20.528Z,15.20
2018-06-21T04:05:50.538Z,15.20
2018-06-21T04:08:18.976Z,15.20
2018-06-21T04:10:47.509Z,15.30
2018-06-21T04:13:15.893Z,15.30
2018-06-21T04:15:44.296Z,15.30
2018-06-21T04:18:12.674Z,15.40
2018-06-21T04:20:43.515Z,15.50
2018-06-21T04:23:11.983Z,15.60
2018-06-21T04:25:40.420Z,15.70
2018-06-21T04:28:08.940Z,15.80
2018-06-21T04:30:37.778Z,15.90
2018-06-21T04:33:06.338Z,16.00
2018-06-21T04:35:34.788Z,16.10
2018-06-21T04:38:04.317Z,16.20
2018-06-21T04:40:32.791Z,16.20
2018-06-21T04:43:01.909Z,16.30
2018-06-21T04:45:31.591Z,16.40
2018-06-21T04:48:00.080Z,16.50
2018-06-21T04:50:28.598Z,16.60
2018-06-21T04:52:59.212Z,16.70
2018-06-21T04:55:27.933Z,16.80
2018-06-21T04:57:57.260Z,16.80
2018-06-21T05:00:25.877Z,16.90
2018-06-21T05:02:54.467Z,17.10
2018-06-21T05:05:22.858Z,17.10
2018-06-21T05:07:51.464Z,17.20
2018-06-21T05:10:19.858Z,17.30
2018-06-21T05:12:48.298Z,17.40
2018-06-21T05:15:16.947Z,17.50
2018-06-21T05:17:45.557Z,17.60
2018-06-21T05:20:14.620Z,17.70
2018-06-21T05:22:43.055Z,17.80
2018-06-21T05:25:11.639Z,17.90
2018-06-21T05:27:40.994Z,18.00
2018-06-21T05:30:09.436Z,18.10
2018-06-21T05:32:37.845Z,18.20
2018-06-21T05:35:06.837Z,18.30
2018-06-21T05:37:35.238Z,18.40
2018-06-21T05:40:04.032Z,18.50
2018-06-21T05:42:32.535Z,18.60
2018-06-21T05:45:01.257Z,18.80
2018-06-21T05:49:58.996Z,19.40
2018-06-21T05:52:27.678Z,20.10
2018-06-21T05:54:56.064Z,21.40
2018-06-21T05:57:25.060Z,23.20
2018-06-21T05:59:53.468Z,24.60
2018-06-21T06:02:21.985Z,26.40
2018-06-21T06:04:52.752Z,27.60
2018-06-21T06:07:21.552Z,28.60
2018-06-21T06:09:50.305Z,29.70
2018-06-21T06:12:20.927Z,30.60
2018-06-21T06:14:49.412Z,31.10
2018-06-21T06:17:18.209Z,31.80
2018-06-21T06:19:46.597Z,32.00
2018-06-21T06:22:15.342Z,32.50
2018-06-21T06:24:43.990Z,32.90
2018-06-21T06:27:12.616Z,33.20
2018-06-21T06:29:41.717Z,32.80
2018-06-21T06:32:10.544Z,33.10
2018-06-21T06:34:39.220Z,33.30
2018-06-21T06:37:08.587Z,33.10
2018-06-21T06:39:37.117Z,32.90
2018-06-21T06:42:06.455Z,32.70
2018-06-21T06:44:35.020Z,32.40
2018-06-21T06:47:03.448Z,32.20
2018-06-21T06:49:32.214Z,32.10
2018-06-21T06:52:00.794Z,32.40
2018-06-21T06:54:30.605Z,33.10
2018-06-21T06:56:59.749Z,33.70
2018-06-21T06:59:28.507Z,34.30
2018-06-21T07:01:57.143Z,34.70
2018-06-21T07:04:25.595Z,35.20
2018-06-21T07:06:54.030Z,35.50
2018-06-21T07:09:23.872Z,35.30
2018-06-21T07:11:52.361Z,34.60
2018-06-21T07:14:21.429Z,34.60
2018-06-21T07:16:49.917Z,35.00
2018-06-21T07:19:18.773Z,34.50
2018-06-21T07:21:47.956Z,34.40
2018-06-21T07:24:17.025Z,34.30
2018-06-21T07:26:46.160Z,34.50
2018-06-21T07:29:15.054Z,34.60
2018-06-21T07:31:48.668Z,34.80
2018-06-21T07:34:19.643Z,35.80
2018-06-21T07:36:48.899Z,36.20
2018-06-21T07:39:18.229Z,36.60
2018-06-21T07:41:47.129Z,36.70
2018-06-21T07:44:16.488Z,36.90
2018-06-21T07:46:45.015Z,36.90
2018-06-21T07:49:13.797Z,36.60
2018-06-21T07:51:42.726Z,36.10
2018-06-21T07:54:12.407Z,35.60
2018-06-21T07:56:41.320Z,35.30
2018-06-21T07:59:10.106Z,35.70
2018-06-21T08:01:38.843Z,36.20
2018-06-21T08:04:07.821Z,36.60
2018-06-21T08:06:36.355Z,36.60
2018-06-21T08:09:08.642Z,36.40
2018-06-21T08:11:37.026Z,36.30
2018-06-21T08:14:05.739Z,36.40
2018-06-21T08:16:35.327Z,36.10
2018-06-21T08:19:03.756Z,35.90
2018-06-21T08:21:32.805Z,36.20
2018-06-21T08:24:01.253Z,36.60
2018-06-21T08:26:29.809Z,36.50
2018-06-21T08:28:58.492Z,36.40
2018-06-21T08:31:27.575Z,36.80
2018-06-21T08:33:56.585Z,36.90
2018-06-21T08:36:25.125Z,36.70
2018-06-21T08:38:54.495Z,37.20
2018-06-21T08:41:23.530Z,37.10
2018-06-21T08:43:52.490Z,37.10
2018-06-21T08:46:21.010Z,36.70
2018-06-21T08:48:50.866Z,35.90
2018-06-21T08:51:20.574Z,35.10
2018-06-21T08:53:49.191Z,34.20
2018-06-21T08:56:18.990Z,33.80
2018-06-21T08:58:47.572Z,33.70
2018-06-21T09:01:17.044Z,33.70
2018-06-21T09:03:46.883Z,34.30
2018-06-21T09:06:23.621Z,34.70
2018-06-21T09:08:52.328Z,35.30
2018-06-21T09:11:21.002Z,35.80
2018-06-21T09:13:49.586Z,35.90
2018-06-21T09:16:18.353Z,35.30
2018-06-21T09:18:46.952Z,34.50
2018-06-21T09:23:44.669Z,34.20
2018-06-21T09:26:13.092Z,34.10
2018-06-21T09:28:41.748Z,34.50
2018-06-21T09:31:10.264Z,34.80
2018-06-21T09:33:39.509Z,34.30
2018-06-21T09:36:08.028Z,33.30
2018-06-21T09:38:42.138Z,32.70
2018-06-21T09:43:20.029Z,32.50
2018-06-21T09:45:54.013Z,32.70
2018-06-21T09:48:30.300Z,34.40
2018-06-21T09:51:00.076Z,35.60
2018-06-21T09:53:29.333Z,36.10
2018-06-21T09:55:59.551Z,35.70
2018-06-21T09:58:28.356Z,35.10
2018-06-21T10:01:04.139Z,34.50
2018-06-21T10:03:33.572Z,34.10
2018-06-21T10:06:02.212Z,33.50
2018-06-21T10:08:31.675Z,33.10
2018-06-21T10:11:00.189Z,33.00
2018-06-21T10:15:57.323Z,34.00
2018-06-21T10:18:26.786Z,34.50
2018-06-21T10:20:55.373Z,34.80
2018-06-21T10:23:23.946Z,35.20
2018-06-21T10:25:52.782Z,35.10
2018-06-21T10:28:21.209Z,35.10
2018-06-21T10:33:18.020Z,35.30
2018-06-21T10:35:46.457Z,35.30
2018-06-21T10:38:15.284Z,34.20
2018-06-21T10:40:44.277Z,33.60
2018-06-21T10:43:13.275Z,33.20
2018-06-21T10:45:42.056Z,33.50
2018-06-21T10:48:10.649Z,34.00
2018-06-21T10:50:39.371Z,34.20
2018-06-21T10:55:36.335Z,34.40
2018-06-21T10:58:04.986Z,34.60
2018-06-21T11:00:33.450Z,34.80
2018-06-21T11:03:03.432Z,34.90
2018-06-21T11:05:32.033Z,34.50
2018-06-21T11:08:00.931Z,34.30
2018-06-21T11:10:29.628Z,34.00
2018-06-21T11:12:58.655Z,33.90
2018-06-21T11:15:27.904Z,33.70
2018-06-21T11:17:57.761Z,33.60
2018-06-21T11:20:27.092Z,33.30
2018-06-21T11:22:55.710Z,33.10
2018-06-21T11:25:25.011Z,32.90
2018-06-21T11:27:53.519Z,32.80
2018-06-21T11:30:22.484Z,32.80
2018-06-21T11:32:50.928Z,32.80
2018-06-21T11:35:19.573Z,32.90
2018-06-21T11:37:48.018Z,32.70
2018-06-21T11:40:16.493Z,32.50
2018-06-21T11:42:45.019Z,32.30
2018-06-21T11:45:15.054Z,32.10
2018-06-21T11:47:45.375Z,31.70
2018-06-21T11:50:13.968Z,31.80
2018-06-21T11:52:42.892Z,31.70
2018-06-21T11:55:11.473Z,32.00
2018-06-21T11:57:40.318Z,31.90
2018-06-21T12:00:08.980Z,31.50
2018-06-21T12:02:37.540Z,31.00
2018-06-21T12:05:06.190Z,30.60
2018-06-21T12:07:35.002Z,30.10
2018-06-21T12:10:03.751Z,29.80
2018-06-21T12:12:33.000Z,29.80
2018-06-21T12:15:01.823Z,30.10
2018-06-21T12:17:30.323Z,30.20
2018-06-21T12:19:58.717Z,30.50
2018-06-21T12:22:27.397Z,30.30
2018-06-21T12:27:24.490Z,29.80
2018-06-21T12:29:52.955Z,29.80
2018-06-21T12:32:21.394Z,29.70
2018-06-21T12:34:50.527Z,30.00
2018-06-21T12:37:20.373Z,30.10
2018-06-21T12:39:48.850Z,30.20
2018-06-21T12:42:17.249Z,30.10
2018-06-21T12:44:45.888Z,29.60
2018-06-21T12:47:14.898Z,29.10
2018-06-21T12:49:43.588Z,28.90
2018-06-21T12:52:12.162Z,28.60
2018-06-21T12:54:41.159Z,28.50
2018-06-21T12:57:09.798Z,28.30
2018-06-21T12:59:38.427Z,28.20
2018-06-21T13:02:06.896Z,28.20
2018-06-21T13:04:35.468Z,28.40
2018-06-21T13:07:03.995Z,28.40
2018-06-21T13:09:44.628Z,28.50
2018-06-21T13:12:27.944Z,28.50
2018-06-21T13:14:57.494Z,28.70
2018-06-21T13:17:27.248Z,28.70
2018-06-21T13:19:56.163Z,28.80
2018-06-21T13:22:25.577Z,29.10
2018-06-21T13:24:54.127Z,29.30
2018-06-21T13:27:22.939Z,29.50
2018-06-21T13:29:51.954Z,29.60
2018-06-21T13:32:20.956Z,29.80
2018-06-21T13:34:50.372Z,29.80
2018-06-21T13:37:19.103Z,29.80
2018-06-21T13:39:48.772Z,29.80
2018-06-21T13:42:17.171Z,29.90
2018-06-21T13:44:46.866Z,30.10
2018-06-21T13:47:15.492Z,30.10
2018-06-21T13:52:12.223Z,30.20
2018-06-21T13:54:40.944Z,29.70
2018-06-21T13:57:10.137Z,29.20
2018-06-21T14:02:07.429Z,28.50
2018-06-21T14:04:36.399Z,28.40
2018-06-21T14:07:05.060Z,28.50
2018-06-21T14:09:33.984Z,28.80
2018-06-21T14:12:02.581Z,28.90
2018-06-21T14:14:32.631Z,28.80
2018-06-21T14:17:01.492Z,28.50
2018-06-21T14:19:30.327Z,28.10
2018-06-21T14:21:59.107Z,27.90
2018-06-21T14:24:28.830Z,27.50
2018-06-21T14:26:57.394Z,27.30
2018-06-21T14:29:26.368Z,26.90
2018-06-21T14:31:55.007Z,26.60
2018-06-21T14:34:23.620Z,26.30
2018-06-21T14:36:52.875Z,26.20
2018-06-21T14:39:21.668Z,26.10
2018-06-21T14:44:18.745Z,26.10
2018-06-21T14:46:47.476Z,25.90
2018-06-21T14:49:16.949Z,25.80
2018-06-21T14:51:45.776Z,25.70
2018-06-21T14:54:15.449Z,25.60
2018-06-21T14:56:44.189Z,25.50
2018-06-21T14:59:13.280Z,25.40
2018-06-21T15:01:42.228Z,25.20
2018-06-21T15:04:10.941Z,25.10
2018-06-21T15:06:40.074Z,25.20
2018-06-21T15:09:11.352Z,25.50
2018-06-21T15:11:39.823Z,25.70
2018-06-21T15:14:09.765Z,25.90
2018-06-21T15:16:38.248Z,26.00
2018-06-21T15:19:10.212Z,26.00
2018-06-21T15:21:38.684Z,25.80
2018-06-21T15:24:07.616Z,25.60
2018-06-21T15:26:36.630Z,25.60
2018-06-21T15:29:05.239Z,25.40
2018-06-21T15:31:33.978Z,25.30
2018-06-21T15:34:02.705Z,25.10
2018-06-21T15:39:02.521Z,24.80
2018-06-21T15:41:31.043Z,24.80
2018-06-21T15:44:00.126Z,24.70
2018-06-21T15:46:29.281Z,24.80
2018-06-21T15:48:59.431Z,24.90
2018-06-21T15:51:27.920Z,24.90
2018-06-21T15:53:57.222Z,24.80
2018-06-21T15:56:25.846Z,24.70
2018-06-21T15:58:54.609Z,24.70
2018-06-21T16:01:23.648Z,24.80
2018-06-21T16:03:52.097Z,24.80
2018-06-21T16:06:20.535Z,24.60
2018-06-21T16:08:49.459Z,24.60
2018-06-21T16:11:17.880Z,24.60
2018-06-21T16:13:46.501Z,24.60
2018-06-21T16:16:14.934Z,24.60
2018-06-21T16:18:43.481Z,24.50
2018-06-21T16:21:13.642Z,24.20
2018-06-21T16:23:42.536Z,24.10
2018-06-21T16:26:11.600Z,24.00
2018-06-21T16:28:40.727Z,23.80
2018-06-21T16:31:09.589Z,23.80
2018-06-21T16:33:38.159Z,23.80
2018-06-21T16:36:07.856Z,23.80
2018-06-21T16:38:36.282Z,23.70
2018-06-21T16:41:05.229Z,23.70
2018-06-21T16:43:33.909Z,23.70
2018-06-21T16:46:02.564Z,23.60
2018-06-21T16:48:30.982Z,23.70
2018-06-21T16:50:59.449Z,23.60
2018-06-21T16:53:27.886Z,23.70
2018-06-21T16:55:56.829Z,23.70
2018-06-21T16:58:25.257Z,23.70
2018-06-21T17:00:53.729Z,23.70
2018-06-21T17:03:22.320Z,23.70
2018-06-21T17:05:51.208Z,23.70
2018-06-21T17:08:19.800Z,23.70
2018-06-21T17:10:48.675Z,23.60
2018-06-21T17:13:17.366Z,23.60
2018-06-21T17:15:46.155Z,23.60
2018-06-21T17:18:14.761Z,23.50
2018-06-21T17:20:43.229Z,23.50
2018-06-21T17:23:12.657Z,23.50
2018-06-21T17:25:41.205Z,23.60
2018-06-21T17:28:09.969Z,23.60
2018-06-21T17:30:39.463Z,23.60
2018-06-21T17:33:08.079Z,23.50
2018-06-21T17:35:36.780Z,23.50
2018-06-21T17:38:05.678Z,23.40
2018-06-21T17:40:34.351Z,23.30
2018-06-21T17:43:02.855Z,23.30
2018-06-21T17:45:31.930Z,23.30
2018-06-21T17:48:01.690Z,23.30
2018-06-21T17:50:30.402Z,23.40
2018-06-21T17:52:59.073Z,23.30
2018-06-21T17:55:27.514Z,23.20
2018-06-21T17:57:56.106Z,23.20
2018-06-21T18:00:25.812Z,23.10
2018-06-21T18:02:54.345Z,23.00
2018-06-21T18:05:22.957Z,22.90
2018-06-21T18:07:51.452Z,22.90
2018-06-21T18:10:20.325Z,22.70
2018-06-21T18:12:49.341Z,22.70
2018-06-21T18:15:18.286Z,22.60
2018-06-21T18:17:46.754Z,22.60
2018-06-21T18:20:15.197Z,22.50
2018-06-21T18:22:43.858Z,22.50
2018-06-21T18:25:12.944Z,22.40
2018-06-21T18:27:41.676Z,22.30
2018-06-21T18:30:10.237Z,22.10
2018-06-21T18:32:40.076Z,22.00
2018-06-21T18:35:08.865Z,21.90
2018-06-21T18:37:38.385Z,21.70
2018-06-21T18:40:07.638Z,21.60
2018-06-21T18:42:36.315Z,21.50
2018-06-21T18:45:06.174Z,21.40
2018-06-21T18:47:34.823Z,21.30
2018-06-21T18:50:03.544Z,21.10
2018-06-21T18:52:32.244Z,20.90
2018-06-21T18:55:01.213Z,20.80
2018-06-21T18:57:29.714Z,20.70
2018-06-21T18:59:58.517Z,20.60
2018-06-21T19:02:27.118Z,20.50
2018-06-21T19:04:55.641Z,20.40
2018-06-21T19:07:30.092Z,20.30
2018-06-21T19:10:04.713Z,20.20
2018-06-21T19:12:33.519Z,20.20
2018-06-21T19:15:02.346Z,20.10
2018-06-21T19:17:31.210Z,20.00
2018-06-21T19:19:59.710Z,19.90
2018-06-21T19:24:56.966Z,19.80
2018-06-21T19:27:25.400Z,19.70
2018-06-21T19:29:53.944Z,19.70
2018-06-21T19:32:22.513Z,19.70
2018-06-21T19:34:51.662Z,19.60
2018-06-21T19:37:20.081Z,19.50
2018-06-21T19:39:48.985Z,19.50
2018-06-21T19:42:17.552Z,19.40
2018-06-21T19:44:46.908Z,19.40
2018-06-21T19:47:15.343Z,19.40
2018-06-21T19:49:43.843Z,19.40
2018-06-21T19:52:12.774Z,19.20
2018-06-21T19:54:41.352Z,19.20
2018-06-21T19:57:10.635Z,19.10
2018-06-21T19:59:39.198Z,19.10
2018-06-21T20:02:07.829Z,19.10
2018-06-21T20:04:36.766Z,19.10
2018-06-21T20:07:06.386Z,19.10
2018-06-21T20:09:35.376Z,19.00
2018-06-21T20:12:04.132Z,18.90
2018-06-21T20:14:32.782Z,18.90
2018-06-21T20:17:02.860Z,18.90
2018-06-21T20:19:35.682Z,18.80
2018-06-21T20:22:04.497Z,18.80
2018-06-21T20:24:33.360Z,18.80
2018-06-21T20:27:01.904Z,18.70
2018-06-21T20:29:31.442Z,18.70
2018-06-21T20:31:59.889Z,18.70
2018-06-21T20:34:28.624Z,18.70
2018-06-21T20:36:58.409Z,18.60
2018-06-21T20:39:26.949Z,18.60
2018-06-21T20:41:55.376Z,18.50
2018-06-21T20:44:23.780Z,18.40
2018-06-21T20:46:53.145Z,18.40
2018-06-21T20:49:21.583Z,18.30
2018-06-21T20:51:50.259Z,18.20
2018-06-21T20:54:18.830Z,18.20
2018-06-21T20:56:47.422Z,18.20
2018-06-21T20:59:17.280Z,18.10
2018-06-21T21:04:14.356Z,18.00
2018-06-21T21:06:43.249Z,17.90
2018-06-21T21:09:12.202Z,17.90
2018-06-21T21:11:41.692Z,17.80
2018-06-21T21:14:11.148Z,17.80
2018-06-21T21:16:39.645Z,17.70
2018-06-21T21:19:08.361Z,17.80
2018-06-21T21:21:37.376Z,17.70
2018-06-21T21:24:05.935Z,17.70
2018-06-21T21:26:35.408Z,17.70
2018-06-21T21:29:04.406Z,17.60
2018-06-21T21:31:33.031Z,17.60
2018-06-21T21:34:01.481Z,17.50
2018-06-21T21:36:30.885Z,17.50
2018-06-21T21:38:59.449Z,17.40
2018-06-21T21:41:28.330Z,17.40
2018-06-21T21:43:56.958Z,17.30
2018-06-21T21:46:25.866Z,17.30
2018-06-21T21:48:55.011Z,17.20
2018-06-21T21:51:23.457Z,17.20
2018-06-21T21:53:52.120Z,17.20
